Time;durP1;ratioP1;P1;durP2;ratioP2;P2;SDS_P1;SDS_P2;PMS_P1;PMS_P2;Temp;Humidity;BMP_temperature;BMP_pressure;BME280_temperature;BME280_humidity;BME280_pressure;Samples;Min_cycle;Max_cycle;Signal;HPM_P1;HPM_P2
2021/05/19 00:01:39;;;;;;;6.07;3.40;;;;;;;;;;143740;607;46016;-58
2021/05/19 00:04:08;;;;;;;5.25;2.92;;;;;;;;;;143740;581;45022;-59
2021/05/19 00:06:35;;;;;;;6.62;2.95;;;;;;;;;;143735;569;46018;-58
2021/05/19 00:09:05;;;;;;;5.90;3.33;;;;;;;;;;143738;591;46010;-59
2021/05/19 00:11:32;;;;;;;10.80;3.22;;;;;;;;;;143740;602;46017;-58
2021/05/19 00:14:00;;;;;;;8.63;3.70;;;;;;;;;;143738;615;45023;-58
2021/05/19 00:16:26;;;;;;;5.75;2.95;;;;;;;;;;143736;594;46036;-58
2021/05/19 00:18:53;;;;;;;9.18;3.33;;;;;;;;;;143737;590;46020;-59
2021/05/19 00:21:21;;;;;;;7.90;3.33;;;;;;;;;;143740;583;46018;-59
2021/05/19 00:23:48;;;;;;;5.07;3.03;;;;;;;;;;143741;588;45020;-58
2021/05/19 00:26:15;;;;;;;6.82;3.78;;;;;;;;;;143740;580;46021;-58
2021/05/19 00:28:45;;;;;;;7.72;3.50;;;;;;;;;;143737;637;46021;-59
2021/05/19 00:31:14;;;;;;;9.45;3.62;;;;;;;;;;143736;579;45020;-58
2021/05/19 00:33:41;;;;;;;6.25;3.47;;;;;;;;;;143736;592;46020;-58
2021/05/19 00:36:13;;;;;;;7.87;3.47;;;;;;;;;;143739;590;46020;-58
2021/05/19 00:38:40;;;;;;;8.20;3.15;;;;;;;;;;143738;589;46010;-58
2021/05/19 00:41:08;;;;;;;7.93;3.60;;;;;;;;;;143739;675;45046;-58
2021/05/19 00:43:36;;;;;;;9.70;3.78;;;;;;;;;;143736;564;46021;-58
2021/05/19 00:46:04;;;;;;;8.07;3.60;;;;;;;;;;143739;569;46020;-58
2021/05/19 00:48:30;;;;;;;6.18;3.28;;;;;;;;;;143737;654;46011;-59
2021/05/19 00:50:58;;;;;;;8.00;3.85;;;;;;;;;;143739;620;46018;-58
2021/05/19 00:53:25;;;;;;;6.53;3.33;;;;;;;;;;143740;595;45028;-58
2021/05/19 00:55:52;;;;;;;6.07;2.90;;;;;;;;;;143734;617;46022;-58
2021/05/19 00:58:19;;;;;;;5.35;3.47;;;;;;;;;;143735;585;46011;-58
2021/05/19 01:00:46;;;;;;;8.00;3.40;;;;;;;;;;143739;661;46018;-59
2021/05/19 01:03:14;;;;;;;7.72;4.15;;;;;;;;;;143737;573;45022;-59
2021/05/19 01:05:58;;;;;;;7.50;3.30;;;;;;;;;;143739;571;46020;-59
2021/05/19 01:11:12;;;;;;;7.18;4.22;;;;;;;;;;143736;579;46010;-58
2021/05/19 01:13:45;;;;;;;7.37;3.12;;;;;;;;;;143740;585;45029;-58
2021/05/19 01:16:13;;;;;;;8.00;3.37;;;;;;;;;;143738;606;46022;-59
2021/05/19 01:18:40;;;;;;;5.35;2.70;;;;;;;;;;143738;590;46010;-59
2021/05/19 01:21:08;;;;;;;9.15;3.35;;;;;;;;;;143736;744;46018;-59
2021/05/19 01:23:37;;;;;;;6.03;3.42;;;;;;;;;;143740;593;45034;-59
2021/05/19 01:26:07;;;;;;;6.07;2.75;;;;;;;;;;143734;603;46021;-59
2021/05/19 01:28:34;;;;;;;5.85;3.00;;;;;;;;;;143738;570;46020;-59
2021/05/19 01:31:01;;;;;;;7.50;3.33;;;;;;;;;;143739;569;46018;-58
2021/05/19 01:33:28;;;;;;;6.05;3.42;;;;;;;;;;143742;606;46020;-59
2021/05/19 01:35:56;;;;;;;8.68;3.12;;;;;;;;;;143739;673;46020;-59
2021/05/19 01:38:23;;;;;;;8.07;3.33;;;;;;;;;;143737;571;46020;-60
2021/05/19 01:40:50;;;;;;;11.27;4.35;;;;;;;;;;143741;634;45021;-59
2021/05/19 01:43:17;;;;;;;13.18;4.00;;;;;;;;;;143737;586;45032;-59
2021/05/19 01:45:44;;;;;;;8.68;3.62;;;;;;;;;;143734;621;46020;-59
2021/05/19 01:48:16;;;;;;;6.95;3.22;;;;;;;;;;143738;582;46013;-59
2021/05/19 01:50:43;;;;;;;9.38;3.42;;;;;;;;;;143739;569;46018;-59
2021/05/19 01:53:13;;;;;;;4.72;2.70;;;;;;;;;;143737;573;45028;-59
2021/05/19 01:55:40;;;;;;;8.27;3.70;;;;;;;;;;143738;637;46021;-59
2021/05/19 01:58:07;;;;;;;6.90;3.33;;;;;;;;;;143736;613;46012;-59
2021/05/19 02:00:34;;;;;;;5.05;3.00;;;;;;;;;;143741;644;46012;-59
2021/05/19 02:03:04;;;;;;;7.82;4.00;;;;;;;;;;143739;660;46020;-59
2021/05/19 02:05:32;;;;;;;7.95;3.53;;;;;;;;;;143733;564;46012;-59
2021/05/19 02:08:01;;;;;;;8.07;3.80;;;;;;;;;;143735;597;46012;-59
2021/05/19 02:10:29;;;;;;;7.68;3.78;;;;;;;;;;143734;580;46020;-59
2021/05/19 02:13:02;;;;;;;12.68;4.22;;;;;;;;;;143742;571;46010;-59
2021/05/19 02:15:30;;;;;;;13.77;4.30;;;;;;;;;;143735;592;46020;-59
2021/05/19 02:17:58;;;;;;;12.43;3.62;;;;;;;;;;143730;684;46921;-59
2021/05/19 02:20:26;;;;;;;8.95;4.22;;;;;;;;;;143733;571;46021;-59
2021/05/19 02:22:52;;;;;;;19.25;4.87;;;;;;;;;;143739;593;45020;-59
2021/05/19 02:25:21;;;;;;;10.68;4.28;;;;;;;;;;143735;586;46021;-59
2021/05/19 02:27:50;;;;;;;13.45;4.12;;;;;;;;;;143731;581;46012;-59
2021/05/19 02:30:18;;;;;;;12.45;4.47;;;;;;;;;;143735;585;46020;-59
2021/05/19 02:32:46;;;;;;;15.52;5.25;;;;;;;;;;143735;576;46019;-60
2021/05/19 02:35:13;;;;;;;8.52;4.25;;;;;;;;;;143734;574;46021;-59
2021/05/19 02:37:41;;;;;;;11.60;4.82;;;;;;;;;;143735;599;46012;-59
2021/05/19 02:40:12;;;;;;;16.67;5.35;;;;;;;;;;143736;616;45021;-59
2021/05/19 02:42:39;;;;;;;13.30;4.82;;;;;;;;;;143737;602;45021;-59
2021/05/19 02:45:07;;;;;;;17.52;4.62;;;;;;;;;;143735;632;46020;-59
2021/05/19 02:47:34;;;;;;;9.80;4.80;;;;;;;;;;143731;577;46013;-59
2021/05/19 02:50:01;;;;;;;14.20;4.68;;;;;;;;;;143731;588;46021;-59
2021/05/19 02:52:28;;;;;;;11.50;4.43;;;;;;;;;;143736;587;46012;-59
2021/05/19 02:54:55;;;;;;;14.40;5.30;;;;;;;;;;143735;598;46020;-60
2021/05/19 02:57:22;;;;;;;18.02;5.62;;;;;;;;;;143732;759;46012;-59
2021/05/19 02:59:49;;;;;;;12.70;4.50;;;;;;;;;;143732;577;46020;-59
2021/05/19 03:02:17;;;;;;;8.60;3.92;;;;;;;;;;143737;588;45020;-59
2021/05/19 03:04:44;;;;;;;10.18;4.12;;;;;;;;;;143736;651;46021;-59
2021/05/19 03:07:10;;;;;;;14.45;4.87;;;;;;;;;;143732;580;46010;-60
2021/05/19 03:09:37;;;;;;;13.02;4.07;;;;;;;;;;143733;563;46020;-59
2021/05/19 03:12:05;;;;;;;11.52;4.12;;;;;;;;;;143737;607;46021;-59
2021/05/19 03:14:32;;;;;;;10.10;4.40;;;;;;;;;;143735;638;46020;-60
2021/05/19 03:17:01;;;;;;;11.93;4.00;;;;;;;;;;143731;572;46010;-59
2021/05/19 03:19:29;;;;;;;12.15;4.18;;;;;;;;;;143734;697;46021;-60
2021/05/19 03:21:56;;;;;;;11.23;4.03;;;;;;;;;;143738;598;45020;-59
2021/05/19 03:24:23;;;;;;;13.70;4.87;;;;;;;;;;143732;601;46022;-59
2021/05/19 03:26:50;;;;;;;15.52;5.18;;;;;;;;;;143729;596;46010;-59
2021/05/19 03:29:17;;;;;;;13.50;4.70;;;;;;;;;;143736;587;46020;-59
2021/05/19 03:31:44;;;;;;;13.35;5.70;;;;;;;;;;143738;672;45020;-59
2021/05/19 03:34:11;;;;;;;15.85;4.50;;;;;;;;;;143736;578;46021;-59
2021/05/19 03:36:38;;;;;;;9.82;4.65;;;;;;;;;;143728;583;47010;-60
2021/05/19 03:39:08;;;;;;;11.48;4.28;;;;;;;;;;143739;722;46020;-59
2021/05/19 03:41:36;;;;;;;12.55;4.32;;;;;;;;;;143737;609;46021;-59
2021/05/19 03:44:05;;;;;;;9.07;4.50;;;;;;;;;;143734;577;46020;-59
2021/05/19 03:46:32;;;;;;;13.48;4.07;;;;;;;;;;143735;642;46012;-60
2021/05/19 03:49:00;;;;;;;10.55;4.80;;;;;;;;;;143731;570;46021;-60
2021/05/19 03:51:29;;;;;;;15.30;4.72;;;;;;;;;;143735;569;46020;-60
2021/05/19 03:53:57;;;;;;;11.77;3.62;;;;;;;;;;143736;581;46020;-60
2021/05/19 03:56:24;;;;;;;15.55;4.28;;;;;;;;;;143736;723;45921;-60
2021/05/19 03:58:51;;;;;;;12.32;4.57;;;;;;;;;;143737;579;46020;-60
2021/05/19 04:01:18;;;;;;;15.35;4.72;;;;;;;;;;143735;604;46020;-61
2021/05/19 04:03:45;;;;;;;13.55;4.85;;;;;;;;;;143737;731;46021;-61
2021/05/19 04:06:12;;;;;;;24.75;4.75;;;;;;;;;;143733;589;46012;-60
2021/05/19 04:08:41;;;;;;;15.60;5.15;;;;;;;;;;143737;573;46020;-61
2021/05/19 04:11:09;;;;;;;15.27;4.97;;;;;;;;;;143738;644;45035;-60
2021/05/19 04:13:36;;;;;;;13.98;4.57;;;;;;;;;;143735;587;46022;-60
2021/05/19 04:16:04;;;;;;;16.70;4.90;;;;;;;;;;143733;602;46012;-60
2021/05/19 04:18:31;;;;;;;19.12;4.53;;;;;;;;;;143734;640;46021;-61
2021/05/19 04:20:59;;;;;;;14.60;4.70;;;;;;;;;;143739;591;45020;-60
2021/05/19 04:23:26;;;;;;;15.30;4.95;;;;;;;;;;143735;589;46022;-61
2021/05/19 04:25:54;;;;;;;15.25;5.03;;;;;;;;;;143733;594;46012;-61
2021/05/19 04:28:22;;;;;;;13.95;4.18;;;;;;;;;;143736;586;46020;-60
2021/05/19 04:30:50;;;;;;;18.00;4.60;;;;;;;;;;143737;590;45020;-60
2021/05/19 04:33:18;;;;;;;23.85;4.80;;;;;;;;;;143735;604;46021;-61
2021/05/19 04:35:46;;;;;;;11.30;4.80;;;;;;;;;;143730;593;46012;-61
2021/05/19 04:38:14;;;;;;;15.70;4.85;;;;;;;;;;143734;585;46020;-61
2021/05/19 04:40:42;;;;;;;17.42;4.25;;;;;;;;;;143735;583;46034;-61
2021/05/19 04:43:10;;;;;;;18.42;4.90;;;;;;;;;;143734;612;46023;-62
2021/05/19 04:45:38;;;;;;;22.40;5.07;;;;;;;;;;143737;589;45921;-61
2021/05/19 04:48:06;;;;;;;7.22;4.30;;;;;;;;;;143736;620;46020;-62
2021/05/19 04:50:34;;;;;;;11.15;4.30;;;;;;;;;;143743;564;45020;-61
2021/05/19 04:53:01;;;;;;;16.35;5.22;;;;;;;;;;143737;608;45022;-61
2021/05/19 04:55:29;;;;;;;12.25;4.20;;;;;;;;;;143734;601;46021;-63
2021/05/19 04:57:57;;;;;;;11.27;4.62;;;;;;;;;;143736;633;46020;-62
2021/05/19 05:00:24;;;;;;;10.88;5.05;;;;;;;;;;143737;629;46012;-61
2021/05/19 05:02:51;;;;;;;12.10;4.80;;;;;;;;;;143737;713;46021;-62
2021/05/19 05:05:18;;;;;;;15.15;5.43;;;;;;;;;;143731;591;46012;-61
2021/05/19 05:07:45;;;;;;;12.98;6.50;;;;;;;;;;143737;789;46020;-61
2021/05/19 05:10:12;;;;;;;12.52;5.15;;;;;;;;;;143735;780;46012;-62
2021/05/19 05:12:40;;;;;;;9.93;4.78;;;;;;;;;;143736;564;46020;-62
2021/05/19 05:15:10;;;;;;;17.17;7.37;;;;;;;;;;143734;610;46012;-60
2021/05/19 05:17:37;;;;;;;14.32;4.78;;;;;;;;;;143737;579;46020;-60
2021/05/19 05:20:06;;;;;;;17.00;6.93;;;;;;;;;;143738;631;46020;-60
2021/05/19 05:22:33;;;;;;;12.85;6.57;;;;;;;;;;143735;565;46020;-61
2021/05/19 05:25:00;;;;;;;17.12;8.23;;;;;;;;;;143732;589;46010;-60
2021/05/19 05:27:27;;;;;;;13.00;7.32;;;;;;;;;;143735;618;46018;-58
2021/05/19 05:29:54;;;;;;;12.05;7.03;;;;;;;;;;143738;624;45022;-59
2021/05/19 05:32:21;;;;;;;12.20;7.00;;;;;;;;;;143734;579;46019;-59
2021/05/19 05:34:48;;;;;;;12.13;5.47;;;;;;;;;;143731;584;46010;-60
2021/05/19 05:37:16;;;;;;;12.18;7.43;;;;;;;;;;143738;587;45018;-59
2021/05/19 05:39:43;;;;;;;9.05;5.30;;;;;;;;;;143739;614;45023;-58
2021/05/19 05:42:10;;;;;;;20.90;7.35;;;;;;;;;;143742;618;46018;-56
2021/05/19 05:44:37;;;;;;;12.65;6.70;;;;;;;;;;143735;564;46010;-57
2021/05/19 05:47:04;;;;;;;24.83;7.03;;;;;;;;;;143735;601;46019;-58
2021/05/19 05:49:31;;;;;;;18.62;7.62;;;;;;;;;;143739;592;46022;-58
2021/05/19 05:51:58;;;;;;;16.77;7.93;;;;;;;;;;143737;596;46018;-57
2021/05/19 05:54:25;;;;;;;16.02;7.62;;;;;;;;;;143733;582;46011;-57
2021/05/19 05:56:52;;;;;;;19.00;7.37;;;;;;;;;;143736;603;46019;-56
2021/05/19 05:59:19;;;;;;;21.80;6.32;;;;;;;;;;143738;571;46022;-57
2021/05/19 06:01:46;;;;;;;14.52;5.80;;;;;;;;;;143736;577;47019;-58
2021/05/19 06:04:13;;;;;;;18.27;6.18;;;;;;;;;;143732;671;46010;-58
2021/05/19 06:06:40;;;;;;;11.40;5.43;;;;;;;;;;143735;585;46018;-57
2021/05/19 06:09:08;;;;;;;9.75;5.12;;;;;;;;;;143738;573;45023;-58
2021/05/19 06:11:35;;;;;;;18.25;8.75;;;;;;;;;;143740;589;46021;-59
2021/05/19 06:14:02;;;;;;;18.35;7.90;;;;;;;;;;143734;581;46010;-59
2021/05/19 06:16:29;;;;;;;16.30;6.62;;;;;;;;;;143733;564;46018;-58
2021/05/19 06:18:56;;;;;;;11.68;7.43;;;;;;;;;;143739;590;45023;-59
2021/05/19 06:21:23;;;;;;;12.37;5.85;;;;;;;;;;143737;573;46018;-58
2021/05/19 06:23:50;;;;;;;22.37;6.37;;;;;;;;;;143730;629;46011;-58
2021/05/19 06:26:17;;;;;;;11.35;6.87;;;;;;;;;;143736;582;46019;-58
2021/05/19 06:28:44;;;;;;;18.37;6.90;;;;;;;;;;143740;610;45022;-59
2021/05/19 06:31:11;;;;;;;10.25;6.22;;;;;;;;;;143736;602;46020;-59
2021/05/19 06:33:38;;;;;;;14.73;7.45;;;;;;;;;;143728;589;47012;-58
2021/05/19 06:36:06;;;;;;;18.02;7.50;;;;;;;;;;143737;659;46018;-59
2021/05/19 06:38:33;;;;;;;11.05;5.57;;;;;;;;;;143739;567;45023;-58
2021/05/19 06:41:00;;;;;;;11.85;5.60;;;;;;;;;;143738;616;46018;-58
2021/05/19 06:43:27;;;;;;;22.70;5.43;;;;;;;;;;143734;586;46012;-57
2021/05/19 06:45:54;;;;;;;15.70;6.55;;;;;;;;;;143735;579;46018;-58
2021/05/19 06:48:21;;;;;;;10.07;5.35;;;;;;;;;;143739;577;45023;-58
2021/05/19 06:50:48;;;;;;;9.90;5.45;;;;;;;;;;143737;573;46018;-58
2021/05/19 06:53:15;;;;;;;12.10;5.85;;;;;;;;;;143739;572;46012;-57
2021/05/19 06:55:49;;;;;;;16.65;4.95;;;;;;;;;;143735;704;46019;-57
2021/05/19 06:58:16;;;;;;;;;;;;;;;;;;143742;974;46012;-58
2021/05/19 07:00:43;;;;;;;17.67;5.05;;;;;;;;;;143745;583;46020;-58
2021/05/19 07:03:10;;;;;;;10.63;4.87;;;;;;;;;;143735;566;46012;-58
2021/05/19 07:05:37;;;;;;;17.58;5.10;;;;;;;;;;143731;566;46018;-58
2021/05/19 07:08:06;;;;;;;11.80;4.15;;;;;;;;;;143740;574;45022;-59
2021/05/19 07:10:33;;;;;;;12.95;5.28;;;;;;;;;;143737;587;46018;-59
2021/05/19 07:13:00;;;;;;;15.30;5.15;;;;;;;;;;143735;678;46012;-58
2021/05/19 07:15:32;;;;;;;14.27;5.25;;;;;;;;;;143739;587;45018;-58
2021/05/19 07:18:15;;;;;;;13.82;5.28;;;;;;;;;;143736;569;46031;-58
2021/05/19 07:20:42;;;;;;;10.90;6.93;;;;;;;;;;143739;569;45020;-58
2021/05/19 07:23:09;;;;;;;13.85;7.60;;;;;;;;;;143735;625;46022;-59
2021/05/19 07:25:36;;;;;;;13.18;6.60;;;;;;;;;;143736;592;46019;-59
2021/05/19 07:28:04;;;;;;;15.38;5.60;;;;;;;;;;143739;700;45022;-57
2021/05/19 07:30:31;;;;;;;14.35;7.85;;;;;;;;;;143738;596;46019;-57
2021/05/19 07:32:59;;;;;;;9.90;6.60;;;;;;;;;;143734;587;46012;-58
2021/05/19 07:35:26;;;;;;;17.83;8.00;;;;;;;;;;143741;592;46018;-57
2021/05/19 07:37:54;;;;;;;14.95;5.97;;;;;;;;;;143737;595;46012;-56
2021/05/19 07:40:22;;;;;;;20.12;8.60;;;;;;;;;;143736;636;46018;-58
2021/05/19 07:42:50;;;;;;;15.90;5.50;;;;;;;;;;143734;569;46923;-59
2021/05/19 07:45:17;;;;;;;11.73;5.10;;;;;;;;;;143737;576;46018;-58
2021/05/19 07:47:44;;;;;;;13.75;6.60;;;;;;;;;;143738;565;46010;-57
2021/05/19 07:50:12;;;;;;;15.57;6.72;;;;;;;;;;143738;738;46018;-59
2021/05/19 07:52:39;;;;;;;13.80;5.45;;;;;;;;;;143734;594;46012;-58
2021/05/19 07:55:10;;;;;;;10.52;5.93;;;;;;;;;;143735;577;46019;-58
2021/05/19 07:57:51;;;;;;;13.23;5.57;;;;;;;;;;143740;581;45026;-57
2021/05/19 08:03:09;;;;;;;7.57;4.45;;;;;;;;;;143733;578;46023;-57
2021/05/19 08:05:36;;;;;;;10.82;5.85;;;;;;;;;;143736;604;46018;-58
2021/05/19 08:08:03;;;;;;;15.52;5.70;;;;;;;;;;143739;576;45022;-57
2021/05/19 08:10:30;;;;;;;10.38;5.32;;;;;;;;;;143736;573;47018;-58
2021/05/19 08:12:57;;;;;;;11.65;4.87;;;;;;;;;;143733;585;46022;-58
2021/05/19 08:15:24;;;;;;;9.18;4.07;;;;;;;;;;143738;608;46018;-58
2021/05/19 08:17:51;;;;;;;7.25;4.53;;;;;;;;;;143744;592;45023;-58
2021/05/19 08:20:20;;;;;;;13.82;5.32;;;;;;;;;;143735;604;47018;-59
2021/05/19 08:22:51;;;;;;;12.63;4.70;;;;;;;;;;143733;616;46012;-58
2021/05/19 08:25:18;;;;;;;9.98;4.78;;;;;;;;;;143736;599;46018;-58
2021/05/19 08:27:45;;;;;;;13.00;3.83;;;;;;;;;;143737;588;46022;-58
2021/05/19 08:30:15;;;;;;;8.95;4.05;;;;;;;;;;143736;610;47018;-58
2021/05/19 08:32:42;;;;;;;8.73;4.25;;;;;;;;;;143739;565;46012;-58
2021/05/19 08:35:10;;;;;;;7.85;4.65;;;;;;;;;;143737;588;46018;-59
2021/05/19 08:37:37;;;;;;;9.18;4.22;;;;;;;;;;143743;569;45023;-58
2021/05/19 08:40:05;;;;;;;17.45;9.73;;;;;;;;;;143737;599;46018;-57
2021/05/19 08:42:36;;;;;;;6.85;3.17;;;;;;;;;;143733;596;46012;-57
2021/05/19 08:45:05;;;;;;;10.10;5.03;;;;;;;;;;143737;574;46018;-56
2021/05/19 08:47:32;;;;;;;9.30;3.50;;;;;;;;;;143738;607;45023;-56
2021/05/19 08:50:01;;;;;;;6.95;3.80;;;;;;;;;;143739;599;46027;-57
2021/05/19 08:52:28;;;;;;;8.38;3.87;;;;;;;;;;143735;567;46013;-57
2021/05/19 08:54:56;;;;;;;13.38;3.37;;;;;;;;;;143737;585;46018;-57
2021/05/19 08:57:23;;;;;;;10.02;3.03;;;;;;;;;;143734;636;46022;-57
2021/05/19 08:59:50;;;;;;;6.97;3.47;;;;;;;;;;143736;569;46018;-56
2021/05/19 09:02:18;;;;;;;6.22;2.50;;;;;;;;;;143739;661;46013;-56
2021/05/19 09:04:46;;;;;;;10.13;3.30;;;;;;;;;;143735;628;46018;-56
2021/05/19 09:07:19;;;;;;;7.85;3.40;;;;;;;;;;143740;588;45022;-56
2021/05/19 09:09:47;;;;;;;7.60;2.80;;;;;;;;;;143738;564;46018;-57
2021/05/19 09:12:15;;;;;;;6.60;3.10;;;;;;;;;;143738;673;46012;-58
2021/05/19 09:15:04;;;;;;;7.87;2.95;;;;;;;;;;143742;603;46018;-58
2021/05/19 09:17:38;;;;;;;4.35;2.65;;;;;;;;;;143743;564;45025;-58
2021/05/19 09:20:08;;;;;;;9.60;2.90;;;;;;;;;;143737;577;46018;-59
2021/05/19 09:22:45;;;;;;;8.48;3.03;;;;;;;;;;143737;618;45921;-60
2021/05/19 09:25:24;;;;;;;7.35;2.67;;;;;;;;;;143735;576;47018;-59
2021/05/19 09:27:53;;;;;;;6.37;3.15;;;;;;;;;;143743;618;46022;-58
2021/05/19 09:30:42;;;;;;;7.57;3.00;;;;;;;;;;143738;591;45020;-58
2021/05/19 09:33:18;;;;;;;9.35;3.47;;;;;;;;;;143738;611;46012;-59
2021/05/19 09:36:06;;;;;;;6.90;2.50;;;;;;;;;;143733;565;46018;-59
2021/05/19 09:38:33;;;;;;;5.78;3.05;;;;;;;;;;143737;571;46023;-59
2021/05/19 09:41:38;;;;;;;6.03;2.67;;;;;;;;;;143741;594;46018;-59
2021/05/19 09:44:06;;;;;;;10.38;4.40;;;;;;;;;;143740;624;46012;-60
2021/05/19 09:46:36;;;;;;;8.75;2.47;;;;;;;;;;143736;576;46019;-59
2021/05/19 09:49:20;;;;;;;9.65;2.87;;;;;;;;;;143739;564;45022;-59
2021/05/19 09:51:54;;;;;;;8.60;2.60;;;;;;;;;;143738;578;46020;-59
2021/05/19 09:54:30;;;;;;;4.87;2.92;;;;;;;;;;143739;619;46012;-58
2021/05/19 09:57:09;;;;;;;6.60;2.53;;;;;;;;;;143734;582;46018;-60
2021/05/19 09:59:40;;;;;;;8.65;3.03;;;;;;;;;;143737;592;46019;-60
2021/05/19 10:02:07;;;;;;;11.20;2.50;;;;;;;;;;143736;572;46019;-59
2021/05/19 10:04:44;;;;;;;6.28;2.83;;;;;;;;;;143734;600;46012;-59
2021/05/19 10:07:13;;;;;;;10.88;3.47;;;;;;;;;;143736;588;46018;-60
2021/05/19 10:09:40;;;;;;;8.88;3.40;;;;;;;;;;143739;564;45023;-60
2021/05/19 10:12:07;;;;;;;7.28;3.12;;;;;;;;;;143735;569;47018;-59
2021/05/19 10:14:36;;;;;;;6.32;2.70;;;;;;;;;;143735;583;46012;-60
2021/05/19 10:17:11;;;;;;;5.60;2.80;;;;;;;;;;143738;572;46019;-60
2021/05/19 10:19:52;;;;;;;5.55;2.92;;;;;;;;;;143738;591;45022;-59
2021/05/19 10:22:20;;;;;;;10.82;3.30;;;;;;;;;;143736;654;46019;-60
2021/05/19 10:25:06;;;;;;;7.90;3.50;;;;;;;;;;143733;603;46013;-59
2021/05/19 10:27:54;;;;;;;7.93;3.20;;;;;;;;;;143732;649;46018;-59
2021/05/19 10:30:58;;;;;;;6.78;3.03;;;;;;;;;;143739;670;45050;-58
2021/05/19 10:33:43;;;;;;;;;;;;;;;;;;143743;975;46027;-61
2021/05/19 10:36:45;;;;;;;5.53;2.85;;;;;;;;;;143744;612;46012;-58
2021/05/19 10:39:29;;;;;;;9.80;4.18;;;;;;;;;;143735;665;46019;-58
2021/05/19 10:41:57;;;;;;;9.85;3.20;;;;;;;;;;143737;570;46022;-60
2021/05/19 10:44:29;;;;;;;11.48;4.50;;;;;;;;;;143737;677;46018;-59
2021/05/19 10:47:09;;;;;;;6.53;3.30;;;;;;;;;;143732;588;46012;-59
2021/05/19 10:50:11;;;;;;;7.93;3.30;;;;;;;;;;143734;692;47018;-59
2021/05/19 10:58:46;;;;;;;7.45;3.10;;;;;;;;;;143736;602;46012;-59
2021/05/19 11:01:13;;;;;;;8.40;3.20;;;;;;;;;;143736;648;46019;-60
2021/05/19 11:03:41;;;;;;;7.72;2.37;;;;;;;;;;143736;607;46012;-59
2021/05/19 11:06:10;;;;;;;9.93;3.33;;;;;;;;;;143739;595;46018;-58
2021/05/19 11:08:38;;;;;;;8.15;2.95;;;;;;;;;;143736;576;46012;-58
2021/05/19 11:11:32;;;;;;;6.35;3.55;;;;;;;;;;143737;725;46018;-59
2021/05/19 11:14:28;;;;;;;6.30;2.92;;;;;;;;;;143742;594;45026;-58
2021/05/19 11:17:17;;;;;;;5.05;2.80;;;;;;;;;;143736;636;46018;-59
2021/05/19 11:19:44;;;;;;;6.72;2.92;;;;;;;;;;143738;591;46012;-59
2021/05/19 11:22:15;;;;;;;8.57;3.37;;;;;;;;;;143736;629;46018;-59
2021/05/19 11:24:56;;;;;;;5.80;2.85;;;;;;;;;;143738;580;45023;-58
2021/05/19 11:27:26;;;;;;;10.40;3.20;;;;;;;;;;143731;577;46018;-58
2021/05/19 11:29:52;;;;;;;8.25;2.75;;;;;;;;;;143731;606;46013;-59
2021/05/19 11:32:22;;;;;;;5.40;2.70;;;;;;;;;;143738;608;46019;-58
2021/05/19 11:34:49;;;;;;;10.85;4.00;;;;;;;;;;143737;610;45022;-58
2021/05/19 11:37:18;;;;;;;9.00;4.28;;;;;;;;;;143735;593;46019;-58
2021/05/19 11:39:52;;;;;;;14.05;3.80;;;;;;;;;;143732;589;46012;-58
2021/05/19 11:42:28;;;;;;;9.20;3.65;;;;;;;;;;143734;571;46018;-59
2021/05/19 11:45:09;;;;;;;7.25;3.03;;;;;;;;;;143741;638;46022;-58
2021/05/19 11:47:40;;;;;;;7.80;3.40;;;;;;;;;;143735;567;46018;-58
2021/05/19 11:50:19;;;;;;;10.70;3.05;;;;;;;;;;143734;569;46012;-58
2021/05/19 11:53:05;;;;;;;7.20;3.25;;;;;;;;;;143736;599;45019;-58
2021/05/19 11:55:45;;;;;;;11.18;3.75;;;;;;;;;;143740;596;46012;-58
2021/05/19 11:58:38;;;;;;;7.37;2.78;;;;;;;;;;143736;587;46018;-58
2021/05/19 12:01:12;;;;;;;10.50;3.22;;;;;;;;;;143736;650;46012;-58
2021/05/19 12:03:39;;;;;;;;;;;;;;;;;;143741;983;45018;-59
2021/05/19 12:06:15;;;;;;;7.53;2.95;;;;;;;;;;143749;660;45022;-58
2021/05/19 12:08:48;;;;;;;9.77;3.53;;;;;;;;;;143740;577;46018;-58
2021/05/19 12:11:27;;;;;;;6.90;3.10;;;;;;;;;;143736;587;46012;-58
2021/05/19 12:14:01;;;;;;;4.10;2.80;;;;;;;;;;143733;615;46018;-58
2021/05/19 12:16:33;;;;;;;9.77;3.30;;;;;;;;;;143737;565;46022;-58
2021/05/19 12:19:21;;;;;;;7.25;2.53;;;;;;;;;;143738;604;46018;-58
2021/05/19 12:22:05;;;;;;;8.25;3.40;;;;;;;;;;143734;600;46013;-59
2021/05/19 12:24:33;;;;;;;10.48;3.17;;;;;;;;;;143736;595;46019;-58
2021/05/19 12:27:01;;;;;;;5.60;2.80;;;;;;;;;;143736;599;46015;-58
2021/05/19 12:29:43;;;;;;;8.10;3.12;;;;;;;;;;143737;606;46019;-58
2021/05/19 12:32:53;;;;;;;5.18;2.90;;;;;;;;;;143736;609;46012;-58
2021/05/19 12:35:20;;;;;;;5.68;2.90;;;;;;;;;;143739;573;46018;-58
2021/05/19 12:37:56;;;;;;;8.23;3.12;;;;;;;;;;143741;610;45023;-58
2021/05/19 12:40:25;;;;;;;7.25;2.95;;;;;;;;;;143738;576;46018;-59
2021/05/19 12:42:55;;;;;;;6.25;3.15;;;;;;;;;;143736;571;46012;-59
2021/05/19 12:45:25;;;;;;;8.82;2.90;;;;;;;;;;143738;567;46019;-58
2021/05/19 12:48:10;;;;;;;8.30;3.45;;;;;;;;;;143737;570;45022;-58
2021/05/19 12:50:39;;;;;;;12.63;5.32;;;;;;;;;;143737;570;46018;-58
2021/05/19 12:53:06;;;;;;;5.07;2.53;;;;;;;;;;143732;584;46012;-58
2021/05/19 12:55:33;;;;;;;4.97;2.35;;;;;;;;;;143735;571;46018;-58
2021/05/19 12:58:11;;;;;;;7.22;3.17;;;;;;;;;;143737;577;46012;-58
2021/05/19 13:01:01;;;;;;;7.30;3.05;;;;;;;;;;143739;609;46018;-59
2021/05/19 13:03:36;;;;;;;5.60;3.20;;;;;;;;;;143736;581;46012;-58
2021/05/19 13:06:05;;;;;;;8.25;2.60;;;;;;;;;;143730;580;46018;-59
2021/05/19 13:08:33;;;;;;;4.80;2.15;;;;;;;;;;143737;575;45023;-58
2021/05/19 13:11:03;;;;;;;6.25;3.17;;;;;;;;;;143735;587;46018;-58
2021/05/19 13:13:35;;;;;;;7.05;2.97;;;;;;;;;;143736;630;45923;-58
2021/05/19 13:16:11;;;;;;;6.70;3.10;;;;;;;;;;143740;577;46019;-59
2021/05/19 13:21:48;;;;;;;8.00;3.12;;;;;;;;;;143736;599;46911;-59
2021/05/19 13:24:17;;;;;;;8.45;3.33;;;;;;;;;;143734;749;46012;-60
2021/05/19 13:26:52;;;;;;;8.25;3.50;;;;;;;;;;143732;619;46018;-59
2021/05/19 13:29:19;;;;;;;6.18;3.12;;;;;;;;;;143737;608;45023;-59
2021/05/19 13:31:57;;;;;;;8.57;3.65;;;;;;;;;;143736;580;46018;-58
2021/05/19 13:37:09;;;;;;;8.82;3.75;;;;;;;;;;143733;583;46021;-60
2021/05/19 13:39:36;;;;;;;13.40;4.00;;;;;;;;;;143737;625;46022;-58
2021/05/19 13:42:04;;;;;;;7.20;2.97;;;;;;;;;;143734;651;46018;-59
2021/05/19 13:44:32;;;;;;;12.40;2.80;;;;;;;;;;143735;564;46014;-58
2021/05/19 13:47:01;;;;;;;8.90;3.45;;;;;;;;;;143732;594;46018;-59
2021/05/19 13:49:33;;;;;;;7.30;3.03;;;;;;;;;;143741;606;45022;-58
2021/05/19 13:52:10;;;;;;;7.70;3.25;;;;;;;;;;143738;591;47020;-58
2021/05/19 13:54:43;;;;;;;5.65;3.47;;;;;;;;;;143736;572;46012;-59
2021/05/19 13:57:10;;;;;;;;;;;;;;;;;;143739;980;46018;-59
2021/05/19 13:59:37;;;;;;;8.77;2.53;;;;;;;;;;143748;565;46020;-59
2021/05/19 14:02:04;;;;;;;5.85;2.45;;;;;;;;;;143738;566;46018;-59
2021/05/19 14:04:31;;;;;;;6.15;2.60;;;;;;;;;;143730;563;46012;-59
2021/05/19 14:06:58;;;;;;;5.43;2.55;;;;;;;;;;143735;567;46019;-59
2021/05/19 14:09:27;;;;;;;5.82;2.78;;;;;;;;;;143738;571;45023;-59
2021/05/19 14:12:16;;;;;;;7.37;3.20;;;;;;;;;;143739;569;46018;-59
2021/05/19 14:15:07;;;;;;;6.37;2.75;;;;;;;;;;143736;599;46012;-59
2021/05/19 14:29:08;;;;;;;10.07;3.62;;;;;;;;;;143741;566;46018;-59
2021/05/19 14:31:35;;;;;;;7.80;3.30;;;;;;;;;;143736;585;46012;-59
2021/05/19 14:34:03;;;;;;;8.75;3.85;;;;;;;;;;143739;602;46018;-59
2021/05/19 15:01:31;;;;;;;9.23;3.10;;;;;;;;;;143737;585;46018;-58
2021/05/19 15:03:58;;;;;;;11.15;4.05;;;;;;;;;;143738;574;46022;-60
2021/05/19 15:06:27;;;;;;;9.95;3.40;;;;;;;;;;143736;602;46019;-60
2021/05/19 15:08:55;;;;;;;7.28;3.00;;;;;;;;;;143736;625;46012;-59
2021/05/19 15:11:22;;;;;;;8.18;3.78;;;;;;;;;;143735;691;46018;-60
2021/05/19 15:13:50;;;;;;;6.72;3.00;;;;;;;;;;143742;564;45023;-60
2021/05/19 15:16:17;;;;;;;8.73;3.60;;;;;;;;;;143735;572;46018;-58
2021/05/19 15:18:44;;;;;;;10.88;4.05;;;;;;;;;;143735;581;46010;-59
2021/05/19 15:21:11;;;;;;;8.27;3.70;;;;;;;;;;143734;632;46019;-58
2021/05/19 15:23:38;;;;;;;11.60;3.50;;;;;;;;;;143742;592;45023;-58
2021/05/19 15:26:05;;;;;;;11.07;3.80;;;;;;;;;;143732;613;46915;-59
2021/05/19 15:28:32;;;;;;;6.18;3.25;;;;;;;;;;143733;645;46011;-59
2021/05/19 15:30:59;;;;;;;9.88;3.30;;;;;;;;;;143737;617;46019;-59
2021/05/19 15:33:27;;;;;;;10.35;3.50;;;;;;;;;;143736;639;46022;-60
2021/05/19 15:35:54;;;;;;;7.78;2.80;;;;;;;;;;143732;576;46019;-59
2021/05/19 15:38:21;;;;;;;8.80;3.70;;;;;;;;;;143734;566;46037;-59
2021/05/19 15:40:50;;;;;;;5.97;3.42;;;;;;;;;;143733;589;46020;-59
2021/05/19 15:43:17;;;;;;;6.97;3.22;;;;;;;;;;143738;573;45021;-59
2021/05/19 15:45:44;;;;;;;9.00;3.42;;;;;;;;;;143739;677;46020;-60
2021/05/19 15:48:11;;;;;;;7.47;3.28;;;;;;;;;;143736;614;46010;-59
2021/05/19 15:50:39;;;;;;;9.90;4.25;;;;;;;;;;143739;575;46020;-59